Terminal Aerodrome Forecast
Issued by NWS Sterling, VA

Home | Current Version | Previous Version | Text Only | Print | Product List | Glossary On
Versions: 1 2 3 4 5 6 7 8 9 10 11 12 13 14
000
FTUS41 KLWX 031143 RRB
TAFCHO
TAF
KCHO 031143Z 0312/0412 00000KT P6SM SKC
     FM031800 16005KT 4SM -SNPL OVC050
     FM031900 19009KT 6SM BR OVC025
      TEMPO 0319/0322 5SM -FZRA OVC025
     FM032200 19011KT 4SM BR OVC015
      TEMPO 0322/0401 4SM -FZDZ OVC008
     FM040500 20011KT 4SM -RA OVC005=

USA.gov is the U.S. government's official web portal to all federal, state and local government web resources and services.